createdAt,value
2018-07-08T00:01:21.033Z,16.90
2018-07-08T00:03:49.607Z,16.80
2018-07-08T00:06:18.925Z,16.80
2018-07-08T00:08:48.572Z,16.80
2018-07-08T00:11:17.381Z,16.90
2018-07-08T00:13:45.887Z,16.90
2018-07-08T00:16:15.243Z,16.80
2018-07-08T00:18:43.737Z,16.80
2018-07-08T00:21:12.206Z,16.90
2018-07-08T00:23:41.224Z,16.80
2018-07-08T00:26:09.827Z,16.80
2018-07-08T00:28:38.290Z,16.80
2018-07-08T00:31:07.185Z,16.70
2018-07-08T00:33:35.607Z,16.70
2018-07-08T00:36:04.073Z,16.60
2018-07-08T00:38:33.387Z,16.50
2018-07-08T00:41:01.841Z,16.50
2018-07-08T00:43:30.301Z,16.50
2018-07-08T00:45:59.208Z,16.50
2018-07-08T00:48:27.805Z,16.40
2018-07-08T00:50:56.264Z,16.40
2018-07-08T00:53:24.725Z,16.40
2018-07-08T00:55:53.804Z,16.40
2018-07-08T00:58:26.266Z,16.50
2018-07-08T01:00:55.057Z,16.60
2018-07-08T01:03:23.582Z,16.50
2018-07-08T01:05:52.057Z,16.40
2018-07-08T01:08:20.518Z,16.30
2018-07-08T01:10:49.177Z,16.20
2018-07-08T01:13:17.649Z,16.30
2018-07-08T01:15:50.320Z,16.20
2018-07-08T01:18:18.884Z,16.30
2018-07-08T01:20:47.465Z,16.30
2018-07-08T01:23:15.913Z,16.30
2018-07-08T01:25:55.550Z,16.20
2018-07-08T01:28:24.014Z,16.20
2018-07-08T01:30:53.192Z,16.10
2018-07-08T01:33:21.646Z,16.10
2018-07-08T01:35:50.096Z,16.10
2018-07-08T01:38:18.538Z,16.00
2018-07-08T01:40:49.218Z,16.00
2018-07-08T01:43:17.728Z,16.00
2018-07-08T01:45:47.662Z,16.00
2018-07-08T01:48:16.586Z,15.90
2018-07-08T01:50:45.841Z,15.90
2018-07-08T01:53:14.749Z,15.90
2018-07-08T01:55:43.204Z,15.80
2018-07-08T01:58:11.830Z,15.80
2018-07-08T02:00:40.799Z,15.90
2018-07-08T02:03:09.836Z,15.90
2018-07-08T02:05:38.708Z,15.90
2018-07-08T02:08:07.655Z,15.90
2018-07-08T02:10:36.605Z,15.90
2018-07-08T02:13:05.201Z,16.00
2018-07-08T02:15:33.679Z,16.00
2018-07-08T02:18:02.175Z,16.00
2018-07-08T02:20:30.653Z,16.00
2018-07-08T02:22:59.196Z,15.90
2018-07-08T02:25:28.254Z,15.90
2018-07-08T02:27:56.732Z,16.00
2018-07-08T02:30:28.341Z,15.90
2018-07-08T02:32:56.901Z,15.90
2018-07-08T02:35:25.411Z,15.90
2018-07-08T02:37:54.181Z,15.90
2018-07-08T02:40:23.666Z,15.90
2018-07-08T02:42:53.063Z,16.00
2018-07-08T02:45:22.545Z,15.90
2018-07-08T02:47:51.370Z,15.80
2018-07-08T02:50:19.885Z,15.80
2018-07-08T02:52:48.679Z,15.80
2018-07-08T02:55:17.318Z,15.70
2018-07-08T02:57:46.467Z,15.70
2018-07-08T03:00:15.056Z,15.70
2018-07-08T03:02:43.465Z,15.60
2018-07-08T03:05:12.205Z,15.60
2018-07-08T03:07:40.650Z,15.60
2018-07-08T03:10:10.216Z,15.60
2018-07-08T03:15:06.884Z,15.40
2018-07-08T03:20:03.489Z,15.30
2018-07-08T03:22:32.024Z,15.30
2018-07-08T03:25:00.464Z,15.30
2018-07-08T03:27:29.031Z,15.30
2018-07-08T03:29:57.494Z,15.20
2018-07-08T03:32:26.666Z,15.20
2018-07-08T03:34:55.092Z,15.40
2018-07-08T03:37:23.589Z,15.40
2018-07-08T03:39:52.001Z,15.40
2018-07-08T03:42:24.590Z,15.30
2018-07-08T03:44:53.000Z,15.30
2018-07-08T03:47:21.424Z,15.30
2018-07-08T03:49:49.850Z,15.20
2018-07-08T03:52:18.349Z,15.30
2018-07-08T03:54:47.507Z,15.30
2018-07-08T03:57:15.954Z,15.50
2018-07-08T03:59:44.360Z,15.60
2018-07-08T04:02:12.777Z,15.60
2018-07-08T04:04:41.471Z,15.70
2018-07-08T04:07:10.054Z,15.70
2018-07-08T04:09:38.488Z,15.70
2018-07-08T04:12:07.593Z,15.70
2018-07-08T04:14:36.128Z,15.70
2018-07-08T04:17:04.593Z,15.80
2018-07-08T04:19:33.412Z,15.90
2018-07-08T04:22:01.825Z,15.90
2018-07-08T04:26:58.636Z,16.00
2018-07-08T04:29:27.108Z,16.00
2018-07-08T04:31:59.652Z,16.00
2018-07-08T04:34:28.844Z,16.10
2018-07-08T04:36:57.358Z,16.10
2018-07-08T04:39:25.812Z,16.00
2018-07-08T04:41:54.346Z,16.10
2018-07-08T04:44:22.776Z,16.00
2018-07-08T04:46:51.210Z,16.00
2018-07-08T04:49:19.708Z,16.00
2018-07-08T04:51:48.089Z,16.20
2018-07-08T04:54:16.538Z,16.20
2018-07-08T04:56:44.975Z,16.30
2018-07-08T04:59:13.502Z,16.40
2018-07-08T05:01:42.226Z,16.50
2018-07-08T05:04:10.630Z,16.40
2018-07-08T05:06:39.101Z,16.30
2018-07-08T05:09:07.617Z,16.30
2018-07-08T05:11:36.048Z,16.40
2018-07-08T05:14:04.883Z,16.40
2018-07-08T05:16:33.325Z,16.50
2018-07-08T05:19:01.819Z,16.60
2018-07-08T05:21:30.404Z,16.60
2018-07-08T05:23:58.849Z,16.70
2018-07-08T05:26:27.852Z,16.80
2018-07-08T05:28:56.321Z,16.90
2018-07-08T05:31:24.848Z,16.90
2018-07-08T05:33:53.276Z,17.00
2018-07-08T05:36:21.736Z,17.00
2018-07-08T05:38:50.864Z,16.90
2018-07-08T05:41:19.296Z,16.90
2018-07-08T05:43:47.757Z,16.70
2018-07-08T05:46:16.220Z,16.50
2018-07-08T05:48:44.684Z,16.40
2018-07-08T05:51:13.622Z,16.60
2018-07-08T05:53:42.285Z,16.80
2018-07-08T05:58:39.537Z,17.00
2018-07-08T06:01:08.140Z,17.00
2018-07-08T06:03:36.564Z,17.00
2018-07-08T06:06:05.632Z,17.20
2018-07-08T06:08:34.076Z,17.20
2018-07-08T06:11:02.497Z,17.20
2018-07-08T06:13:31.187Z,17.30
2018-07-08T06:15:59.664Z,17.50
2018-07-08T06:18:34.817Z,17.60
2018-07-08T06:21:03.362Z,17.60
2018-07-08T06:23:31.904Z,17.50
2018-07-08T06:26:00.441Z,17.70
2018-07-08T06:28:28.818Z,17.70
2018-07-08T06:30:57.272Z,17.70
2018-07-08T06:33:30.266Z,17.70
2018-07-08T06:35:58.731Z,17.70
2018-07-08T06:38:27.848Z,17.90
2018-07-08T06:40:56.857Z,18.10
2018-07-08T06:43:25.310Z,18.30
2018-07-08T06:45:53.759Z,18.30
2018-07-08T06:48:23.165Z,18.40
2018-07-08T06:50:51.706Z,18.40
2018-07-08T06:53:20.113Z,18.50
2018-07-08T06:55:48.781Z,18.70
2018-07-08T06:58:17.682Z,19.10
2018-07-08T07:00:46.235Z,19.30
2018-07-08T07:03:15.101Z,19.50
2018-07-08T07:05:43.573Z,19.50
2018-07-08T07:08:12.568Z,19.70
2018-07-08T07:10:41.089Z,19.90
2018-07-08T07:13:09.538Z,20.10
2018-07-08T07:15:38.016Z,20.00
2018-07-08T07:18:06.475Z,20.00
2018-07-08T07:20:34.905Z,19.90
2018-07-08T07:23:03.395Z,19.80
2018-07-08T07:25:32.238Z,19.90
2018-07-08T07:28:01.058Z,20.20
2018-07-08T07:30:29.866Z,20.10
2018-07-08T07:32:58.296Z,20.20
2018-07-08T07:35:26.782Z,20.20
2018-07-08T07:37:55.191Z,20.40
2018-07-08T07:40:23.941Z,20.50
2018-07-08T07:42:52.560Z,20.40
2018-07-08T07:45:21.747Z,20.50
2018-07-08T07:47:50.174Z,20.70
2018-07-08T07:50:18.640Z,20.80
2018-07-08T07:52:47.089Z,20.90
2018-07-08T07:55:15.500Z,20.90
2018-07-08T07:57:43.951Z,20.90
2018-07-08T08:00:12.384Z,21.10
2018-07-08T08:05:09.226Z,21.40
2018-07-08T08:07:37.912Z,21.40
2018-07-08T08:10:06.700Z,21.40
2018-07-08T08:12:35.230Z,21.50
2018-07-08T08:15:03.756Z,21.70
2018-07-08T08:17:32.362Z,22.00
2018-07-08T08:20:00.817Z,22.00
2018-07-08T08:22:29.291Z,21.90
2018-07-08T08:24:57.717Z,21.90
2018-07-08T08:27:26.129Z,21.90
2018-07-08T08:29:55.218Z,22.00
2018-07-08T08:32:23.685Z,22.10
2018-07-08T08:34:54.269Z,22.30
2018-07-08T08:37:31.273Z,22.20
2018-07-08T08:39:59.758Z,22.30
2018-07-08T08:42:28.204Z,22.50
2018-07-08T08:44:57.541Z,22.70
2018-07-08T08:47:26.708Z,22.70
2018-07-08T08:49:55.399Z,22.70
2018-07-08T08:52:24.790Z,22.90
2018-07-08T08:54:53.711Z,23.00
2018-07-08T08:57:22.788Z,23.10
2018-07-08T08:59:51.210Z,23.10
2018-07-08T09:02:19.793Z,23.20
2018-07-08T09:04:48.361Z,23.50
2018-07-08T09:07:17.845Z,23.70
2018-07-08T09:09:46.332Z,23.70
2018-07-08T09:12:15.029Z,23.80
2018-07-08T09:14:43.494Z,23.90
2018-07-08T09:17:12.223Z,23.90
2018-07-08T09:19:40.888Z,24.10
2018-07-08T09:22:09.873Z,24.40
2018-07-08T09:24:39.060Z,24.40
2018-07-08T09:27:07.754Z,24.40
2018-07-08T09:29:39.179Z,24.80
2018-07-08T09:32:07.623Z,24.90
2018-07-08T09:34:36.073Z,24.90
2018-07-08T09:37:04.569Z,25.00
2018-07-08T09:39:33.079Z,25.00
2018-07-08T09:42:01.606Z,25.00
2018-07-08T09:44:30.068Z,24.90
2018-07-08T09:46:58.489Z,24.90
2018-07-08T09:49:27.069Z,25.00
2018-07-08T09:51:55.517Z,25.00
2018-07-08T09:54:24.062Z,25.30
2018-07-08T09:56:52.588Z,25.70
2018-07-08T09:59:21.035Z,25.70
2018-07-08T10:01:50.182Z,25.70
2018-07-08T10:04:21.041Z,25.50
2018-07-08T10:06:50.225Z,25.40
2018-07-08T10:09:19.928Z,25.40
2018-07-08T10:11:48.506Z,25.40
2018-07-08T10:14:18.310Z,25.70
2018-07-08T10:16:46.790Z,26.00
2018-07-08T10:19:16.731Z,26.30
2018-07-08T10:21:45.202Z,26.50
2018-07-08T10:24:13.840Z,26.60
2018-07-08T10:26:42.442Z,26.80
2018-07-08T10:29:13.351Z,26.90
2018-07-08T10:31:49.776Z,26.80
2018-07-08T10:34:18.543Z,26.80
2018-07-08T10:36:47.174Z,26.90
2018-07-08T10:39:16.227Z,27.00
2018-07-08T10:41:44.661Z,27.00
2018-07-08T10:44:13.342Z,27.00
2018-07-08T10:46:42.301Z,27.20
2018-07-08T10:49:10.955Z,27.20
2018-07-08T10:51:39.593Z,27.50
2018-07-08T10:54:08.948Z,27.50
2018-07-08T10:56:37.530Z,27.40
2018-07-08T10:59:06.098Z,27.60
2018-07-08T11:01:34.569Z,27.60
2018-07-08T11:04:03.071Z,27.40
2018-07-08T11:06:31.678Z,27.60
2018-07-08T11:09:04.976Z,27.70
2018-07-08T11:11:33.508Z,28.00
2018-07-08T11:14:02.531Z,27.90
2018-07-08T11:16:30.974Z,27.60
2018-07-08T11:18:59.480Z,27.70
2018-07-08T11:21:28.008Z,27.50
2018-07-08T11:23:56.497Z,27.80
2018-07-08T11:26:25.828Z,27.90
2018-07-08T11:28:54.589Z,27.80
2018-07-08T11:31:23.093Z,27.90
2018-07-08T11:33:51.911Z,28.00
2018-07-08T11:36:20.466Z,28.20
2018-07-08T11:38:48.919Z,28.10
2018-07-08T11:41:17.964Z,28.20
2018-07-08T11:43:46.592Z,28.30
2018-07-08T11:46:15.105Z,28.20
2018-07-08T11:48:43.523Z,28.40
2018-07-08T11:51:12.004Z,28.50
2018-07-08T11:53:41.064Z,28.40
2018-07-08T11:56:09.852Z,28.20
2018-07-08T11:58:38.288Z,28.20
2018-07-08T12:01:06.917Z,28.40
2018-07-08T12:03:35.380Z,28.50
2018-07-08T12:06:03.821Z,28.50
2018-07-08T12:08:32.288Z,28.50
2018-07-08T12:11:00.721Z,28.60
2018-07-08T12:13:29.302Z,28.70
2018-07-08T12:15:57.746Z,28.60
2018-07-08T12:18:26.813Z,28.50
2018-07-08T12:20:55.305Z,28.40
2018-07-08T12:23:23.816Z,28.50
2018-07-08T12:25:53.408Z,28.50
2018-07-08T12:28:21.910Z,28.50
2018-07-08T12:30:50.324Z,28.50
2018-07-08T12:33:19.052Z,28.40
2018-07-08T12:35:47.490Z,28.40
2018-07-08T12:38:16.570Z,28.10
2018-07-08T12:53:50.073Z,28.10
2018-07-08T12:56:19.137Z,28.10
2018-07-08T12:58:47.746Z,28.20
2018-07-08T13:01:16.105Z,28.50
2018-07-08T13:03:44.580Z,28.60
2018-07-08T13:06:13.057Z,28.60
2018-07-08T13:08:41.847Z,28.70
2018-07-08T13:11:10.398Z,28.80
2018-07-08T13:13:38.868Z,28.80
2018-07-08T13:16:07.713Z,28.70
2018-07-08T13:18:36.189Z,28.80
2018-07-08T13:21:04.645Z,28.80
2018-07-08T13:23:33.168Z,28.90
2018-07-08T13:26:01.599Z,28.90
2018-07-08T13:28:30.083Z,28.90
2018-07-08T13:30:58.719Z,28.90
2018-07-08T13:33:27.630Z,29.00
2018-07-08T13:35:56.221Z,29.00
2018-07-08T13:38:24.659Z,29.00
2018-07-08T13:40:53.117Z,29.00
2018-07-08T13:43:21.907Z,29.10
2018-07-08T13:45:51.644Z,29.00
2018-07-08T13:48:20.726Z,29.10
2018-07-08T13:50:49.250Z,29.30
2018-07-08T13:53:18.608Z,29.60
2018-07-08T13:55:48.333Z,29.50
2018-07-08T13:58:16.848Z,29.40
2018-07-08T14:00:49.288Z,29.40
2018-07-08T14:03:17.736Z,29.40
2018-07-08T14:05:46.244Z,29.50
2018-07-08T14:08:14.990Z,29.30
2018-07-08T14:10:43.509Z,29.30
2018-07-08T14:13:11.915Z,29.30
2018-07-08T14:15:40.346Z,29.40
2018-07-08T14:18:09.696Z,29.50
2018-07-08T14:20:38.938Z,29.40
2018-07-08T14:23:07.386Z,29.30
2018-07-08T14:25:35.991Z,29.60
2018-07-08T14:28:04.681Z,29.50
2018-07-08T14:40:23.163Z,29.50
2018-07-08T14:42:51.615Z,29.00
2018-07-08T14:45:20.150Z,29.40
2018-07-08T14:50:17.249Z,29.80
2018-07-08T14:52:45.778Z,29.70
2018-07-08T14:55:14.197Z,29.70
2018-07-08T14:57:43.201Z,29.70
2018-07-08T15:00:12.288Z,29.80
2018-07-08T15:02:40.830Z,29.80
2018-07-08T15:05:09.273Z,29.70
2018-07-08T15:07:37.677Z,29.40
2018-07-08T15:10:06.169Z,29.30
2018-07-08T15:12:34.617Z,29.10
2018-07-08T15:15:03.752Z,29.00
2018-07-08T15:17:32.191Z,29.00
2018-07-08T15:20:01.425Z,29.00
2018-07-08T15:22:29.843Z,28.90
2018-07-08T15:24:58.342Z,28.90
2018-07-08T15:27:27.068Z,28.90
2018-07-08T15:29:55.602Z,28.70
2018-07-08T15:32:24.137Z,28.50
2018-07-08T15:34:52.874Z,28.40
2018-07-08T15:37:21.565Z,28.40
2018-07-08T15:39:50.049Z,28.20
2018-07-08T15:42:19.565Z,28.10
2018-07-08T15:54:38.452Z,28.00
2018-07-08T15:57:07.016Z,27.40
2018-07-08T15:59:35.488Z,27.40
2018-07-08T16:02:04.029Z,27.50
2018-07-08T16:04:32.604Z,27.40
2018-07-08T16:07:01.547Z,27.30
2018-07-08T16:09:30.629Z,27.20
2018-07-08T16:12:03.537Z,27.20
2018-07-08T16:14:32.337Z,27.20
2018-07-08T16:17:01.122Z,27.20
2018-07-08T16:19:29.632Z,27.20
2018-07-08T16:21:58.096Z,27.10
2018-07-08T16:24:26.574Z,27.00
2018-07-08T16:26:55.039Z,26.90
2018-07-08T16:29:23.534Z,26.90
2018-07-08T16:31:52.026Z,26.80
2018-07-08T16:34:20.873Z,26.60
2018-07-08T16:36:49.345Z,26.60
2018-07-08T16:39:18.049Z,26.60
2018-07-08T16:41:46.506Z,26.50
2018-07-08T16:44:14.989Z,26.50
2018-07-08T16:46:43.516Z,26.40
2018-07-08T16:49:12.042Z,26.40
2018-07-08T16:51:40.524Z,26.30
2018-07-08T16:54:09.183Z,26.30
2018-07-08T16:56:38.163Z,26.30
2018-07-08T16:59:07.067Z,26.40
2018-07-08T17:04:04.264Z,26.40
2018-07-08T17:06:32.777Z,26.50
2018-07-08T17:09:01.266Z,26.30
2018-07-08T17:11:30.705Z,26.30
2018-07-08T17:14:00.218Z,26.30
2018-07-08T17:18:56.988Z,26.10
2018-07-08T17:21:25.804Z,26.10
2018-07-08T17:23:54.265Z,26.10
2018-07-08T17:26:23.558Z,25.90
2018-07-08T17:28:52.358Z,25.80
2018-07-08T17:31:20.850Z,25.80
2018-07-08T17:33:49.525Z,25.70
2018-07-08T17:36:19.117Z,25.60
2018-07-08T17:38:47.964Z,25.50
2018-07-08T17:41:16.487Z,25.50
2018-07-08T17:43:45.554Z,25.40
2018-07-08T17:46:14.092Z,25.30
2018-07-08T17:48:42.597Z,25.20
2018-07-08T17:51:11.050Z,25.30
2018-07-08T17:53:39.518Z,25.20
2018-07-08T17:56:08.527Z,25.20
2018-07-08T17:58:37.014Z,25.10
2018-07-08T18:01:05.454Z,25.00
2018-07-08T18:03:34.045Z,25.00
2018-07-08T18:06:02.486Z,25.00
2018-07-08T18:08:31.405Z,25.10
2018-07-08T18:10:59.914Z,25.20
2018-07-08T18:13:28.789Z,25.00
2018-07-08T18:15:57.264Z,25.00
2018-07-08T18:18:25.737Z,24.90
2018-07-08T18:20:54.365Z,24.90
2018-07-08T18:23:22.942Z,24.80
2018-07-08T18:25:53.108Z,24.70
2018-07-08T18:28:21.722Z,24.60
2018-07-08T18:30:50.241Z,24.50
2018-07-08T18:33:19.086Z,24.40
2018-07-08T18:35:47.549Z,24.40
2018-07-08T18:38:16.133Z,24.30
2018-07-08T18:40:44.673Z,24.30
2018-07-08T18:43:13.190Z,24.30
2018-07-08T18:45:41.644Z,24.30
2018-07-08T18:48:10.601Z,24.30
2018-07-08T18:50:39.115Z,24.30
2018-07-08T18:53:07.608Z,24.20
2018-07-08T18:55:36.089Z,24.20
2018-07-08T18:58:08.492Z,24.10
2018-07-08T19:00:37.042Z,23.90
2018-07-08T19:03:09.624Z,23.90
2018-07-08T19:05:38.129Z,23.80
2018-07-08T19:08:06.608Z,23.80
2018-07-08T19:10:35.321Z,23.70
2018-07-08T19:13:03.916Z,23.60
2018-07-08T19:15:32.420Z,23.60
2018-07-08T19:18:00.914Z,23.60
2018-07-08T19:20:29.432Z,23.60
2018-07-08T19:22:57.991Z,23.50
2018-07-08T19:25:26.820Z,23.40
2018-07-08T19:27:55.332Z,23.40
2018-07-08T19:30:23.732Z,23.30
2018-07-08T19:32:52.353Z,23.20
2018-07-08T19:35:21.180Z,23.10
2018-07-08T19:37:54.294Z,23.00
2018-07-08T19:40:23.144Z,23.00
2018-07-08T19:42:52.016Z,22.80
2018-07-08T19:45:20.596Z,22.70
2018-07-08T19:47:49.138Z,22.70
2018-07-08T19:50:17.557Z,22.50
2018-07-08T19:52:46.208Z,22.60
2018-07-08T19:55:14.621Z,22.60
2018-07-08T19:57:43.126Z,22.50
2018-07-08T20:00:11.593Z,22.50
2018-07-08T20:02:40.403Z,22.30
2018-07-08T20:05:08.869Z,22.40
2018-07-08T20:07:37.432Z,22.30
2018-07-08T20:10:06.201Z,22.30
2018-07-08T20:12:34.805Z,22.10
2018-07-08T20:15:03.430Z,22.10
2018-07-08T20:17:32.981Z,22.10
2018-07-08T20:20:01.819Z,22.10
2018-07-08T20:22:30.354Z,22.00
2018-07-08T20:24:58.799Z,21.80
2018-07-08T20:27:27.225Z,21.70
2018-07-08T20:29:56.310Z,21.60
2018-07-08T20:32:25.906Z,21.50
2018-07-08T20:34:54.332Z,21.50
2018-07-08T20:37:23.402Z,21.50
2018-07-08T20:39:52.338Z,21.40
2018-07-08T20:42:20.961Z,21.30
2018-07-08T20:44:49.520Z,21.30
2018-07-08T20:47:19.184Z,21.20
2018-07-08T20:49:47.764Z,21.20
2018-07-08T20:52:16.224Z,21.10
2018-07-08T20:54:45.988Z,21.20
2018-07-08T20:57:14.515Z,21.20
2018-07-08T20:59:43.004Z,21.20
2018-07-08T21:02:11.500Z,21.10
2018-07-08T21:04:40.388Z,21.00
2018-07-08T21:07:08.875Z,20.80
2018-07-08T21:09:37.802Z,20.70
2018-07-08T21:12:06.261Z,20.70
2018-07-08T21:14:34.714Z,20.60
2018-07-08T21:17:03.828Z,20.60
2018-07-08T21:19:32.547Z,20.60
2018-07-08T21:22:01.551Z,20.50
2018-07-08T21:24:30.022Z,20.40
2018-07-08T21:26:58.892Z,20.40
2018-07-08T21:29:28.089Z,20.30
2018-07-08T21:31:56.506Z,20.30
2018-07-08T21:34:26.154Z,20.40
2018-07-08T21:36:54.778Z,20.30
2018-07-08T21:39:23.190Z,20.30
2018-07-08T21:41:51.796Z,20.20
2018-07-08T21:44:20.606Z,20.00
2018-07-08T21:46:49.086Z,20.00
2018-07-08T21:49:17.524Z,19.80
2018-07-08T21:51:45.993Z,19.70
2018-07-08T21:54:14.437Z,19.60
2018-07-08T21:56:42.893Z,19.60
2018-07-08T21:59:11.337Z,19.60
2018-07-08T22:02:07.358Z,19.60
2018-07-08T22:04:35.797Z,19.50
2018-07-08T22:07:09.733Z,19.40
2018-07-08T22:09:38.620Z,19.40
2018-07-08T22:12:07.141Z,19.30
2018-07-08T22:14:36.651Z,19.10
2018-07-08T22:17:05.149Z,19.00
2018-07-08T22:19:33.805Z,19.00
2018-07-08T22:22:02.424Z,18.90
2018-07-08T22:24:31.102Z,18.90
2018-07-08T22:26:59.787Z,18.90
2018-07-08T22:29:28.680Z,18.90
2018-07-08T22:31:57.196Z,18.90
2018-07-08T22:34:26.488Z,18.90
2018-07-08T22:36:54.988Z,18.80
2018-07-08T22:39:23.477Z,18.80
2018-07-08T22:41:51.929Z,18.70
2018-07-08T22:44:20.452Z,18.70
2018-07-08T22:46:48.872Z,18.70
2018-07-08T22:49:17.639Z,18.80
2018-07-08T22:51:46.745Z,18.80
2018-07-08T22:54:15.213Z,18.80
2018-07-08T22:56:43.672Z,18.80
2018-07-08T22:59:12.548Z,18.70
2018-07-08T23:01:52.240Z,18.60
2018-07-08T23:04:21.192Z,18.60
2018-07-08T23:06:49.726Z,18.50
2018-07-08T23:09:18.837Z,18.30
2018-07-08T23:11:51.169Z,18.30
2018-07-08T23:14:20.060Z,18.20
2018-07-08T23:16:49.111Z,18.00
2018-07-08T23:19:17.553Z,18.00
2018-07-08T23:21:46.206Z,18.00
2018-07-08T23:24:14.948Z,18.00
2018-07-08T23:26:43.509Z,17.90
2018-07-08T23:29:12.689Z,17.80
2018-07-08T23:31:41.195Z,17.90
2018-07-08T23:34:10.412Z,17.80
2018-07-08T23:36:38.853Z,17.70
2018-07-08T23:39:07.856Z,17.80
2018-07-08T23:41:36.440Z,17.80
2018-07-08T23:44:04.940Z,17.70
2018-07-08T23:46:33.420Z,17.70
2018-07-08T23:49:02.272Z,17.70
2018-07-08T23:51:30.697Z,17.70
2018-07-08T23:53:59.113Z,17.80
2018-07-08T23:56:27.556Z,17.80
2018-07-08T23:58:55.997Z,17.80
